Ashley, Wisconsin
Current Conditions -  °F | °C
As of 6:45 PM on Tuesday 21 Oct 2014 (Local Time) from KCWA Reporting Station
Clear Clear  
Wind Chill: 46°   Ceiling: Unl
Heat Index: 46°   Visibility: 10mi
Dew Point: 34°   Wind: 0mph
Humidity: 62%   Direction: NA
Pressure: 30.23"   Gusts: NA
Location:  44.7605°N, 89.5918°W
Report Text: KCWA 212345Z 00000KT 10SM SKC 08/01 A3023
Loading
Personal Weather Stations






























Interactive Weather Map
Tropical Storm Tracking
New forecast layout! Learn more

10-Day Weather Forecast

Advertisements
Track Severe Weather on mobile